sensor_id;sensor_type;location;lat;lon;timestamp;P1;durP1;ratioP1;P2;durP2;ratioP2
81306;SDS011;70775;50.846;3.224;2023-07-16T00:02:24;10.35;;;4.15;;
81306;SDS011;70775;50.846;3.224;2023-07-16T00:04:50;9.73;;;3.90;;
81306;SDS011;70775;50.846;3.224;2023-07-16T00:07:15;7.50;;;2.95;;
81306;SDS011;70775;50.846;3.224;2023-07-16T00:09:42;17.35;;;4.32;;
81306;SDS011;70775;50.846;3.224;2023-07-16T00:12:08;8.45;;;3.00;;
81306;SDS011;70775;50.846;3.224;2023-07-16T00:14:35;11.48;;;3.70;;
81306;SDS011;70775;50.846;3.224;2023-07-16T00:17:00;8.85;;;3.35;;
81306;SDS011;70775;50.846;3.224;2023-07-16T00:19:26;10.35;;;3.40;;
81306;SDS011;70775;50.846;3.224;2023-07-16T00:21:52;12.13;;;4.07;;
81306;SDS011;70775;50.846;3.224;2023-07-16T00:24:17;7.07;;;3.08;;
81306;SDS011;70775;50.846;3.224;2023-07-16T00:26:43;11.00;;;3.13;;
81306;SDS011;70775;50.846;3.224;2023-07-16T00:29:08;15.10;;;3.53;;
81306;SDS011;70775;50.846;3.224;2023-07-16T00:31:36;5.47;;;2.67;;
81306;SDS011;70775;50.846;3.224;2023-07-16T00:34:02;9.43;;;3.25;;
81306;SDS011;70775;50.846;3.224;2023-07-16T00:36:28;10.27;;;3.72;;
81306;SDS011;70775;50.846;3.224;2023-07-16T00:38:54;10.65;;;3.72;;
81306;SDS011;70775;50.846;3.224;2023-07-16T00:41:19;6.47;;;2.72;;
81306;SDS011;70775;50.846;3.224;2023-07-16T00:43:45;6.95;;;2.90;;
81306;SDS011;70775;50.846;3.224;2023-07-16T00:46:10;7.75;;;3.50;;
81306;SDS011;70775;50.846;3.224;2023-07-16T00:48:37;7.45;;;3.30;;
81306;SDS011;70775;50.846;3.224;2023-07-16T00:51:02;10.65;;;3.28;;
81306;SDS011;70775;50.846;3.224;2023-07-16T00:53:30;9.00;;;3.50;;
81306;SDS011;70775;50.846;3.224;2023-07-16T00:55:57;10.23;;;3.35;;
81306;SDS011;70775;50.846;3.224;2023-07-16T00:58:22;7.55;;;3.90;;
81306;SDS011;70775;50.846;3.224;2023-07-16T01:00:48;18.73;;;5.88;;
81306;SDS011;70775;50.846;3.224;2023-07-16T01:03:14;8.57;;;3.75;;
81306;SDS011;70775;50.846;3.224;2023-07-16T01:05:43;7.00;;;3.70;;
81306;SDS011;70775;50.846;3.224;2023-07-16T01:08:11;13.05;;;4.53;;
81306;SDS011;70775;50.846;3.224;2023-07-16T01:10:38;9.40;;;4.03;;
81306;SDS011;70775;50.846;3.224;2023-07-16T01:13:04;10.63;;;4.20;;
81306;SDS011;70775;50.846;3.224;2023-07-16T01:15:30;9.73;;;4.18;;
81306;SDS011;70775;50.846;3.224;2023-07-16T01:17:56;9.00;;;4.70;;
81306;SDS011;70775;50.846;3.224;2023-07-16T01:20:21;9.43;;;3.97;;
81306;SDS011;70775;50.846;3.224;2023-07-16T01:23:08;10.35;;;3.90;;
81306;SDS011;70775;50.846;3.224;2023-07-16T01:26:01;9.27;;;3.72;;
81306;SDS011;70775;50.846;3.224;2023-07-16T01:31:08;10.60;;;4.18;;
81306;SDS011;70775;50.846;3.224;2023-07-16T01:33:36;9.88;;;4.22;;
81306;SDS011;70775;50.846;3.224;2023-07-16T01:36:05;9.52;;;3.97;;
81306;SDS011;70775;50.846;3.224;2023-07-16T01:38:32;7.90;;;3.40;;
81306;SDS011;70775;50.846;3.224;2023-07-16T01:40:58;8.00;;;3.72;;
81306;SDS011;70775;50.846;3.224;2023-07-16T01:43:24;8.60;;;3.63;;
81306;SDS011;70775;50.846;3.224;2023-07-16T01:45:49;10.18;;;3.45;;
81306;SDS011;70775;50.846;3.224;2023-07-16T01:48:34;9.43;;;4.53;;
81306;SDS011;70775;50.846;3.224;2023-07-16T01:51:02;8.85;;;3.95;;
81306;SDS011;70775;50.846;3.224;2023-07-16T01:53:28;9.52;;;4.10;;
81306;SDS011;70775;50.846;3.224;2023-07-16T01:55:53;6.50;;;3.55;;
81306;SDS011;70775;50.846;3.224;2023-07-16T01:58:19;10.07;;;3.40;;
81306;SDS011;70775;50.846;3.224;2023-07-16T02:00:45;8.30;;;3.95;;
81306;SDS011;70775;50.846;3.224;2023-07-16T02:03:11;7.82;;;4.25;;
81306;SDS011;70775;50.846;3.224;2023-07-16T02:05:36;9.95;;;3.88;;
81306;SDS011;70775;50.846;3.224;2023-07-16T02:08:02;10.07;;;4.07;;
81306;SDS011;70775;50.846;3.224;2023-07-16T02:10:28;9.50;;;4.63;;
81306;SDS011;70775;50.846;3.224;2023-07-16T02:12:53;12.63;;;5.15;;
81306;SDS011;70775;50.846;3.224;2023-07-16T02:15:19;8.40;;;4.57;;
81306;SDS011;70775;50.846;3.224;2023-07-16T02:17:45;10.90;;;4.57;;
81306;SDS011;70775;50.846;3.224;2023-07-16T02:20:10;10.27;;;4.95;;
81306;SDS011;70775;50.846;3.224;2023-07-16T02:22:36;12.00;;;5.50;;
81306;SDS011;70775;50.846;3.224;2023-07-16T02:25:02;11.93;;;5.22;;
81306;SDS011;70775;50.846;3.224;2023-07-16T02:27:29;10.85;;;5.38;;
81306;SDS011;70775;50.846;3.224;2023-07-16T02:29:54;8.63;;;5.20;;
81306;SDS011;70775;50.846;3.224;2023-07-16T02:32:20;11.02;;;5.40;;
81306;SDS011;70775;50.846;3.224;2023-07-16T02:34:46;11.50;;;5.07;;
81306;SDS011;70775;50.846;3.224;2023-07-16T02:37:11;10.93;;;5.40;;
81306;SDS011;70775;50.846;3.224;2023-07-16T02:39:38;10.98;;;5.80;;
81306;SDS011;70775;50.846;3.224;2023-07-16T02:42:04;10.13;;;4.60;;
81306;SDS011;70775;50.846;3.224;2023-07-16T02:44:30;8.90;;;4.75;;
81306;SDS011;70775;50.846;3.224;2023-07-16T02:46:55;10.77;;;4.65;;
81306;SDS011;70775;50.846;3.224;2023-07-16T02:49:21;11.77;;;5.00;;
81306;SDS011;70775;50.846;3.224;2023-07-16T02:51:47;8.65;;;5.43;;
81306;SDS011;70775;50.846;3.224;2023-07-16T02:54:12;10.07;;;4.20;;
81306;SDS011;70775;50.846;3.224;2023-07-16T02:56:38;9.13;;;4.68;;
81306;SDS011;70775;50.846;3.224;2023-07-16T02:59:03;11.05;;;4.90;;
81306;SDS011;70775;50.846;3.224;2023-07-16T03:01:29;11.48;;;5.45;;
81306;SDS011;70775;50.846;3.224;2023-07-16T03:03:55;10.38;;;4.35;;
81306;SDS011;70775;50.846;3.224;2023-07-16T03:06:21;11.18;;;5.32;;
81306;SDS011;70775;50.846;3.224;2023-07-16T03:08:46;9.32;;;3.95;;
81306;SDS011;70775;50.846;3.224;2023-07-16T03:11:12;9.07;;;4.40;;
81306;SDS011;70775;50.846;3.224;2023-07-16T03:13:37;10.82;;;4.53;;
81306;SDS011;70775;50.846;3.224;2023-07-16T03:16:03;8.60;;;4.47;;
81306;SDS011;70775;50.846;3.224;2023-07-16T03:18:29;10.70;;;4.80;;
81306;SDS011;70775;50.846;3.224;2023-07-16T03:20:56;9.23;;;5.18;;
81306;SDS011;70775;50.846;3.224;2023-07-16T03:23:22;9.73;;;4.32;;
81306;SDS011;70775;50.846;3.224;2023-07-16T03:25:48;10.27;;;4.65;;
81306;SDS011;70775;50.846;3.224;2023-07-16T03:28:14;9.55;;;5.00;;
81306;SDS011;70775;50.846;3.224;2023-07-16T03:30:39;11.93;;;5.10;;
81306;SDS011;70775;50.846;3.224;2023-07-16T03:33:09;9.07;;;5.10;;
81306;SDS011;70775;50.846;3.224;2023-07-16T03:35:35;13.82;;;5.05;;
81306;SDS011;70775;50.846;3.224;2023-07-16T03:38:00;11.23;;;4.65;;
81306;SDS011;70775;50.846;3.224;2023-07-16T03:40:26;8.85;;;4.80;;
81306;SDS011;70775;50.846;3.224;2023-07-16T03:42:52;15.90;;;5.32;;
81306;SDS011;70775;50.846;3.224;2023-07-16T03:45:18;12.25;;;5.10;;
81306;SDS011;70775;50.846;3.224;2023-07-16T03:47:44;8.85;;;4.78;;
81306;SDS011;70775;50.846;3.224;2023-07-16T03:50:09;13.48;;;5.47;;
81306;SDS011;70775;50.846;3.224;2023-07-16T03:52:35;10.80;;;5.10;;
81306;SDS011;70775;50.846;3.224;2023-07-16T03:55:01;11.57;;;4.85;;
81306;SDS011;70775;50.846;3.224;2023-07-16T03:57:27;10.23;;;5.65;;
81306;SDS011;70775;50.846;3.224;2023-07-16T03:59:54;13.23;;;5.60;;
81306;SDS011;70775;50.846;3.224;2023-07-16T04:02:19;10.80;;;5.80;;
81306;SDS011;70775;50.846;3.224;2023-07-16T04:04:45;14.50;;;5.93;;
81306;SDS011;70775;50.846;3.224;2023-07-16T04:07:11;12.38;;;5.70;;
81306;SDS011;70775;50.846;3.224;2023-07-16T04:09:37;11.05;;;5.05;;
81306;SDS011;70775;50.846;3.224;2023-07-16T04:12:03;11.73;;;5.53;;
81306;SDS011;70775;50.846;3.224;2023-07-16T04:14:30;10.98;;;5.85;;
81306;SDS011;70775;50.846;3.224;2023-07-16T04:16:56;15.63;;;6.38;;
81306;SDS011;70775;50.846;3.224;2023-07-16T04:19:21;10.23;;;6.22;;
81306;SDS011;70775;50.846;3.224;2023-07-16T04:21:47;11.93;;;6.38;;
81306;SDS011;70775;50.846;3.224;2023-07-16T04:24:12;11.65;;;5.72;;
81306;SDS011;70775;50.846;3.224;2023-07-16T04:26:38;13.40;;;6.80;;
81306;SDS011;70775;50.846;3.224;2023-07-16T04:29:04;9.23;;;4.55;;
81306;SDS011;70775;50.846;3.224;2023-07-16T04:31:29;14.43;;;7.18;;
81306;SDS011;70775;50.846;3.224;2023-07-16T04:33:55;12.18;;;5.88;;
81306;SDS011;70775;50.846;3.224;2023-07-16T04:36:20;13.70;;;5.38;;
81306;SDS011;70775;50.846;3.224;2023-07-16T04:38:46;11.38;;;6.40;;
81306;SDS011;70775;50.846;3.224;2023-07-16T04:41:12;12.88;;;6.32;;
81306;SDS011;70775;50.846;3.224;2023-07-16T04:43:38;11.95;;;6.30;;
81306;SDS011;70775;50.846;3.224;2023-07-16T04:46:04;12.00;;;6.32;;
81306;SDS011;70775;50.846;3.224;2023-07-16T04:48:29;14.77;;;6.63;;
81306;SDS011;70775;50.846;3.224;2023-07-16T04:50:55;12.88;;;5.75;;
81306;SDS011;70775;50.846;3.224;2023-07-16T04:53:25;15.13;;;5.40;;
81306;SDS011;70775;50.846;3.224;2023-07-16T04:55:54;13.70;;;5.28;;
81306;SDS011;70775;50.846;3.224;2023-07-16T04:58:19;12.13;;;5.63;;
81306;SDS011;70775;50.846;3.224;2023-07-16T05:00:45;14.43;;;6.18;;
81306;SDS011;70775;50.846;3.224;2023-07-16T05:03:11;12.27;;;5.53;;
81306;SDS011;70775;50.846;3.224;2023-07-16T05:05:36;12.35;;;5.90;;
81306;SDS011;70775;50.846;3.224;2023-07-16T05:08:02;14.55;;;6.28;;
81306;SDS011;70775;50.846;3.224;2023-07-16T05:10:28;16.17;;;6.75;;
81306;SDS011;70775;50.846;3.224;2023-07-16T05:12:53;13.57;;;6.75;;
81306;SDS011;70775;50.846;3.224;2023-07-16T05:15:19;13.90;;;6.50;;
81306;SDS011;70775;50.846;3.224;2023-07-16T05:17:44;14.13;;;6.35;;
81306;SDS011;70775;50.846;3.224;2023-07-16T05:20:10;13.95;;;7.15;;
81306;SDS011;70775;50.846;3.224;2023-07-16T05:22:36;12.45;;;6.63;;
81306;SDS011;70775;50.846;3.224;2023-07-16T05:25:02;17.77;;;6.93;;
81306;SDS011;70775;50.846;3.224;2023-07-16T05:27:28;16.40;;;7.28;;
81306;SDS011;70775;50.846;3.224;2023-07-16T05:29:53;12.05;;;6.13;;
81306;SDS011;70775;50.846;3.224;2023-07-16T05:32:19;10.10;;;5.38;;
81306;SDS011;70775;50.846;3.224;2023-07-16T05:34:46;12.10;;;6.53;;
81306;SDS011;70775;50.846;3.224;2023-07-16T05:37:12;12.13;;;6.75;;
81306;SDS011;70775;50.846;3.224;2023-07-16T05:39:38;14.23;;;6.78;;
81306;SDS011;70775;50.846;3.224;2023-07-16T05:42:04;12.90;;;6.53;;
81306;SDS011;70775;50.846;3.224;2023-07-16T05:44:30;11.07;;;6.07;;
81306;SDS011;70775;50.846;3.224;2023-07-16T05:46:55;12.23;;;6.63;;
81306;SDS011;70775;50.846;3.224;2023-07-16T05:49:21;14.80;;;6.95;;
81306;SDS011;70775;50.846;3.224;2023-07-16T05:51:47;14.77;;;7.50;;
81306;SDS011;70775;50.846;3.224;2023-07-16T05:54:13;12.73;;;7.22;;
81306;SDS011;70775;50.846;3.224;2023-07-16T05:56:39;11.35;;;6.35;;
81306;SDS011;70775;50.846;3.224;2023-07-16T05:59:04;16.70;;;7.25;;
81306;SDS011;70775;50.846;3.224;2023-07-16T06:01:30;13.90;;;6.47;;
81306;SDS011;70775;50.846;3.224;2023-07-16T06:03:55;15.60;;;7.07;;
81306;SDS011;70775;50.846;3.224;2023-07-16T06:06:21;14.05;;;6.82;;
81306;SDS011;70775;50.846;3.224;2023-07-16T06:08:49;12.68;;;6.63;;
81306;SDS011;70775;50.846;3.224;2023-07-16T06:11:14;12.52;;;5.95;;
81306;SDS011;70775;50.846;3.224;2023-07-16T06:13:40;13.68;;;6.85;;
81306;SDS011;70775;50.846;3.224;2023-07-16T06:16:06;14.60;;;7.18;;
81306;SDS011;70775;50.846;3.224;2023-07-16T06:18:31;16.33;;;7.07;;
81306;SDS011;70775;50.846;3.224;2023-07-16T06:20:57;15.15;;;7.07;;
81306;SDS011;70775;50.846;3.224;2023-07-16T06:23:23;11.82;;;6.72;;
81306;SDS011;70775;50.846;3.224;2023-07-16T06:25:48;20.73;;;7.40;;
81306;SDS011;70775;50.846;3.224;2023-07-16T06:28:19;13.80;;;7.07;;
81306;SDS011;70775;50.846;3.224;2023-07-16T06:30:45;12.07;;;5.95;;
81306;SDS011;70775;50.846;3.224;2023-07-16T06:33:11;12.23;;;5.93;;
81306;SDS011;70775;50.846;3.224;2023-07-16T06:35:36;11.90;;;5.95;;
81306;SDS011;70775;50.846;3.224;2023-07-16T06:38:02;15.75;;;6.55;;
81306;SDS011;70775;50.846;3.224;2023-07-16T06:40:28;12.25;;;5.53;;
81306;SDS011;70775;50.846;3.224;2023-07-16T06:42:55;16.52;;;6.70;;
81306;SDS011;70775;50.846;3.224;2023-07-16T06:45:21;13.20;;;6.70;;
81306;SDS011;70775;50.846;3.224;2023-07-16T06:47:47;15.10;;;6.88;;
81306;SDS011;70775;50.846;3.224;2023-07-16T06:50:13;14.73;;;5.68;;
81306;SDS011;70775;50.846;3.224;2023-07-16T06:52:42;14.85;;;7.10;;
81306;SDS011;70775;50.846;3.224;2023-07-16T06:55:08;15.25;;;7.10;;
81306;SDS011;70775;50.846;3.224;2023-07-16T06:57:34;13.75;;;6.38;;
81306;SDS011;70775;50.846;3.224;2023-07-16T06:59:59;16.27;;;6.75;;
81306;SDS011;70775;50.846;3.224;2023-07-16T07:02:25;13.50;;;6.68;;
81306;SDS011;70775;50.846;3.224;2023-07-16T07:04:50;13.98;;;6.80;;
81306;SDS011;70775;50.846;3.224;2023-07-16T07:07:16;12.50;;;5.63;;
81306;SDS011;70775;50.846;3.224;2023-07-16T07:09:42;13.65;;;5.38;;
81306;SDS011;70775;50.846;3.224;2023-07-16T07:12:08;12.40;;;5.47;;
81306;SDS011;70775;50.846;3.224;2023-07-16T07:14:33;14.38;;;6.30;;
81306;SDS011;70775;50.846;3.224;2023-07-16T07:16:59;13.30;;;6.05;;
81306;SDS011;70775;50.846;3.224;2023-07-16T07:19:25;15.80;;;7.03;;
81306;SDS011;70775;50.846;3.224;2023-07-16T07:21:50;12.45;;;5.55;;
81306;SDS011;70775;50.846;3.224;2023-07-16T07:24:16;14.50;;;6.82;;
81306;SDS011;70775;50.846;3.224;2023-07-16T07:26:42;11.90;;;6.05;;
81306;SDS011;70775;50.846;3.224;2023-07-16T07:29:07;10.55;;;5.15;;
81306;SDS011;70775;50.846;3.224;2023-07-16T07:31:33;12.38;;;5.93;;
81306;SDS011;70775;50.846;3.224;2023-07-16T07:33:59;12.70;;;5.55;;
81306;SDS011;70775;50.846;3.224;2023-07-16T07:36:25;15.50;;;5.85;;
81306;SDS011;70775;50.846;3.224;2023-07-16T07:38:50;10.88;;;5.53;;
81306;SDS011;70775;50.846;3.224;2023-07-16T07:41:16;13.00;;;6.15;;
81306;SDS011;70775;50.846;3.224;2023-07-16T07:43:42;9.38;;;4.90;;
81306;SDS011;70775;50.846;3.224;2023-07-16T07:46:08;15.02;;;6.03;;
81306;SDS011;70775;50.846;3.224;2023-07-16T07:48:33;13.30;;;5.40;;
81306;SDS011;70775;50.846;3.224;2023-07-16T07:50:59;10.88;;;5.30;;
81306;SDS011;70775;50.846;3.224;2023-07-16T07:53:24;14.13;;;6.10;;
81306;SDS011;70775;50.846;3.224;2023-07-16T07:55:50;13.35;;;5.70;;
81306;SDS011;70775;50.846;3.224;2023-07-16T07:58:16;9.25;;;4.80;;
81306;SDS011;70775;50.846;3.224;2023-07-16T08:00:41;13.02;;;5.45;;
81306;SDS011;70775;50.846;3.224;2023-07-16T08:03:07;14.07;;;6.40;;
81306;SDS011;70775;50.846;3.224;2023-07-16T08:05:32;11.07;;;5.22;;
81306;SDS011;70775;50.846;3.224;2023-07-16T08:07:59;11.75;;;6.03;;
81306;SDS011;70775;50.846;3.224;2023-07-16T08:10:24;10.80;;;5.25;;
81306;SDS011;70775;50.846;3.224;2023-07-16T08:12:50;11.73;;;4.20;;
81306;SDS011;70775;50.846;3.224;2023-07-16T08:15:17;12.80;;;5.90;;
81306;SDS011;70775;50.846;3.224;2023-07-16T08:17:43;9.00;;;4.82;;
81306;SDS011;70775;50.846;3.224;2023-07-16T08:20:10;8.77;;;4.40;;
81306;SDS011;70775;50.846;3.224;2023-07-16T08:22:36;11.75;;;4.43;;
81306;SDS011;70775;50.846;3.224;2023-07-16T08:25:02;12.27;;;5.25;;
81306;SDS011;70775;50.846;3.224;2023-07-16T08:27:28;11.95;;;5.90;;
81306;SDS011;70775;50.846;3.224;2023-07-16T08:29:54;9.45;;;4.93;;
81306;SDS011;70775;50.846;3.224;2023-07-16T08:32:20;10.45;;;4.85;;
81306;SDS011;70775;50.846;3.224;2023-07-16T08:34:46;9.18;;;4.93;;
81306;SDS011;70775;50.846;3.224;2023-07-16T08:37:12;8.85;;;4.13;;
81306;SDS011;70775;50.846;3.224;2023-07-16T08:39:38;11.15;;;5.05;;
81306;SDS011;70775;50.846;3.224;2023-07-16T08:42:04;17.05;;;5.72;;
81306;SDS011;70775;50.846;3.224;2023-07-16T08:44:31;12.80;;;4.80;;
81306;SDS011;70775;50.846;3.224;2023-07-16T08:46:57;8.98;;;4.18;;
81306;SDS011;70775;50.846;3.224;2023-07-16T08:49:23;8.70;;;3.78;;
81306;SDS011;70775;50.846;3.224;2023-07-16T08:51:53;6.60;;;2.83;;
81306;SDS011;70775;50.846;3.224;2023-07-16T08:54:20;9.55;;;3.03;;
81306;SDS011;70775;50.846;3.224;2023-07-16T08:56:47;5.80;;;3.10;;
81306;SDS011;70775;50.846;3.224;2023-07-16T08:59:17;10.43;;;3.45;;
81306;SDS011;70775;50.846;3.224;2023-07-16T09:01:43;6.28;;;2.97;;
81306;SDS011;70775;50.846;3.224;2023-07-16T09:04:08;5.47;;;2.47;;
81306;SDS011;70775;50.846;3.224;2023-07-16T09:06:34;4.00;;;1.75;;
81306;SDS011;70775;50.846;3.224;2023-07-16T09:08:59;4.57;;;1.60;;
81306;SDS011;70775;50.846;3.224;2023-07-16T09:11:25;4.82;;;1.48;;
81306;SDS011;70775;50.846;3.224;2023-07-16T09:13:52;2.95;;;1.20;;
81306;SDS011;70775;50.846;3.224;2023-07-16T09:16:18;3.28;;;1.35;;
81306;SDS011;70775;50.846;3.224;2023-07-16T09:18:44;4.38;;;1.30;;
81306;SDS011;70775;50.846;3.224;2023-07-16T09:21:10;4.10;;;1.35;;
81306;SDS011;70775;50.846;3.224;2023-07-16T09:23:36;3.55;;;1.25;;
81306;SDS011;70775;50.846;3.224;2023-07-16T09:26:02;4.35;;;1.50;;
81306;SDS011;70775;50.846;3.224;2023-07-16T09:28:30;4.03;;;1.40;;
81306;SDS011;70775;50.846;3.224;2023-07-16T09:31:02;5.97;;;1.83;;
81306;SDS011;70775;50.846;3.224;2023-07-16T09:33:30;4.53;;;1.20;;
81306;SDS011;70775;50.846;3.224;2023-07-16T09:35:57;3.80;;;1.70;;
81306;SDS011;70775;50.846;3.224;2023-07-16T09:38:23;2.65;;;1.50;;
81306;SDS011;70775;50.846;3.224;2023-07-16T09:40:49;2.95;;;1.73;;
81306;SDS011;70775;50.846;3.224;2023-07-16T09:43:17;3.80;;;1.80;;
81306;SDS011;70775;50.846;3.224;2023-07-16T09:45:42;4.97;;;1.75;;
81306;SDS011;70775;50.846;3.224;2023-07-16T09:48:08;4.25;;;1.80;;
81306;SDS011;70775;50.846;3.224;2023-07-16T09:50:35;5.15;;;1.80;;
81306;SDS011;70775;50.846;3.224;2023-07-16T09:53:03;6.10;;;2.08;;
81306;SDS011;70775;50.846;3.224;2023-07-16T09:55:30;7.85;;;2.53;;
81306;SDS011;70775;50.846;3.224;2023-07-16T09:57:59;6.13;;;2.30;;
81306;SDS011;70775;50.846;3.224;2023-07-16T10:00:27;7.57;;;2.70;;
81306;SDS011;70775;50.846;3.224;2023-07-16T10:02:53;9.02;;;3.03;;
81306;SDS011;70775;50.846;3.224;2023-07-16T10:05:24;8.32;;;2.72;;
81306;SDS011;70775;50.846;3.224;2023-07-16T10:07:51;6.65;;;2.88;;
81306;SDS011;70775;50.846;3.224;2023-07-16T10:10:19;6.93;;;2.47;;
81306;SDS011;70775;50.846;3.224;2023-07-16T10:12:58;9.15;;;2.90;;
81306;SDS011;70775;50.846;3.224;2023-07-16T10:15:27;4.70;;;2.30;;
81306;SDS011;70775;50.846;3.224;2023-07-16T10:17:54;7.20;;;2.47;;
81306;SDS011;70775;50.846;3.224;2023-07-16T10:20:30;4.88;;;2.30;;
81306;SDS011;70775;50.846;3.224;2023-07-16T10:22:58;10.20;;;2.80;;
81306;SDS011;70775;50.846;3.224;2023-07-16T10:25:27;3.90;;;2.05;;
81306;SDS011;70775;50.846;3.224;2023-07-16T10:27:54;6.53;;;2.53;;
81306;SDS011;70775;50.846;3.224;2023-07-16T10:30:20;6.63;;;2.28;;
81306;SDS011;70775;50.846;3.224;2023-07-16T10:32:46;6.07;;;2.20;;
81306;SDS011;70775;50.846;3.224;2023-07-16T10:35:12;7.10;;;2.72;;
81306;SDS011;70775;50.846;3.224;2023-07-16T10:37:40;5.05;;;2.58;;
81306;SDS011;70775;50.846;3.224;2023-07-16T10:40:05;8.30;;;2.85;;
81306;SDS011;70775;50.846;3.224;2023-07-16T10:42:36;6.95;;;2.90;;
81306;SDS011;70775;50.846;3.224;2023-07-16T10:45:03;7.13;;;2.75;;
81306;SDS011;70775;50.846;3.224;2023-07-16T10:47:33;8.48;;;3.08;;
81306;SDS011;70775;50.846;3.224;2023-07-16T10:50:00;6.30;;;2.33;;
81306;SDS011;70775;50.846;3.224;2023-07-16T10:52:33;3.45;;;1.85;;
81306;SDS011;70775;50.846;3.224;2023-07-16T10:54:59;7.72;;;3.20;;
81306;SDS011;70775;50.846;3.224;2023-07-16T10:57:25;5.53;;;2.47;;
81306;SDS011;70775;50.846;3.224;2023-07-16T10:59:51;5.85;;;2.63;;
81306;SDS011;70775;50.846;3.224;2023-07-16T11:02:18;7.70;;;3.05;;
81306;SDS011;70775;50.846;3.224;2023-07-16T11:04:46;5.88;;;2.42;;
81306;SDS011;70775;50.846;3.224;2023-07-16T11:07:12;5.63;;;2.15;;
81306;SDS011;70775;50.846;3.224;2023-07-16T11:09:46;8.10;;;2.88;;
81306;SDS011;70775;50.846;3.224;2023-07-16T11:12:16;3.83;;;1.80;;
81306;SDS011;70775;50.846;3.224;2023-07-16T11:14:48;3.38;;;1.83;;
81306;SDS011;70775;50.846;3.224;2023-07-16T11:17:15;4.60;;;2.00;;
81306;SDS011;70775;50.846;3.224;2023-07-16T11:19:41;4.10;;;1.80;;
81306;SDS011;70775;50.846;3.224;2023-07-16T11:22:10;6.57;;;2.53;;
81306;SDS011;70775;50.846;3.224;2023-07-16T11:24:46;8.10;;;2.40;;
81306;SDS011;70775;50.846;3.224;2023-07-16T11:27:16;6.70;;;2.33;;
81306;SDS011;70775;50.846;3.224;2023-07-16T11:29:56;7.95;;;2.50;;
81306;SDS011;70775;50.846;3.224;2023-07-16T11:34:52;6.38;;;2.55;;
81306;SDS011;70775;50.846;3.224;2023-07-16T11:37:18;4.78;;;2.13;;
81306;SDS011;70775;50.846;3.224;2023-07-16T11:39:46;3.78;;;1.95;;
81306;SDS011;70775;50.846;3.224;2023-07-16T11:42:12;6.57;;;2.40;;
81306;SDS011;70775;50.846;3.224;2023-07-16T11:44:37;4.45;;;2.13;;
81306;SDS011;70775;50.846;3.224;2023-07-16T11:47:03;5.80;;;2.17;;
81306;SDS011;70775;50.846;3.224;2023-07-16T11:49:29;4.47;;;2.22;;
81306;SDS011;70775;50.846;3.224;2023-07-16T11:51:56;6.30;;;2.42;;
81306;SDS011;70775;50.846;3.224;2023-07-16T11:54:22;5.18;;;2.17;;
81306;SDS011;70775;50.846;3.224;2023-07-16T11:56:48;6.18;;;2.25;;
81306;SDS011;70775;50.846;3.224;2023-07-16T11:59:13;6.45;;;2.28;;
81306;SDS011;70775;50.846;3.224;2023-07-16T12:01:41;7.53;;;2.22;;
81306;SDS011;70775;50.846;3.224;2023-07-16T12:04:07;8.23;;;2.75;;
81306;SDS011;70775;50.846;3.224;2023-07-16T12:06:32;6.38;;;1.80;;
81306;SDS011;70775;50.846;3.224;2023-07-16T12:08:58;7.25;;;2.25;;
81306;SDS011;70775;50.846;3.224;2023-07-16T12:11:23;4.45;;;1.90;;
81306;SDS011;70775;50.846;3.224;2023-07-16T12:13:49;4.50;;;1.67;;
81306;SDS011;70775;50.846;3.224;2023-07-16T12:16:15;3.30;;;1.52;;
81306;SDS011;70775;50.846;3.224;2023-07-16T12:18:40;3.72;;;1.48;;
81306;SDS011;70775;50.846;3.224;2023-07-16T12:21:07;3.95;;;1.73;;
81306;SDS011;70775;50.846;3.224;2023-07-16T12:23:32;5.43;;;1.90;;
81306;SDS011;70775;50.846;3.224;2023-07-16T12:25:58;4.70;;;2.08;;
81306;SDS011;70775;50.846;3.224;2023-07-16T12:28:24;4.90;;;1.60;;
81306;SDS011;70775;50.846;3.224;2023-07-16T12:30:49;4.50;;;1.80;;
81306;SDS011;70775;50.846;3.224;2023-07-16T12:33:15;6.38;;;2.15;;
81306;SDS011;70775;50.846;3.224;2023-07-16T12:35:40;5.68;;;1.98;;
81306;SDS011;70775;50.846;3.224;2023-07-16T12:38:06;6.35;;;2.35;;
81306;SDS011;70775;50.846;3.224;2023-07-16T12:40:32;7.43;;;2.88;;
81306;SDS011;70775;50.846;3.224;2023-07-16T12:43:04;5.15;;;2.63;;
81306;SDS011;70775;50.846;3.224;2023-07-16T12:45:30;6.15;;;1.90;;
81306;SDS011;70775;50.846;3.224;2023-07-16T12:47:55;5.70;;;2.28;;
81306;SDS011;70775;50.846;3.224;2023-07-16T12:50:22;6.18;;;2.33;;
81306;SDS011;70775;50.846;3.224;2023-07-16T12:52:48;7.70;;;2.28;;
81306;SDS011;70775;50.846;3.224;2023-07-16T12:55:14;3.88;;;1.95;;
81306;SDS011;70775;50.846;3.224;2023-07-16T12:57:39;4.43;;;2.03;;
81306;SDS011;70775;50.846;3.224;2023-07-16T13:00:05;6.85;;;2.08;;
81306;SDS011;70775;50.846;3.224;2023-07-16T13:02:34;3.72;;;1.50;;
81306;SDS011;70775;50.846;3.224;2023-07-16T13:04:59;8.57;;;2.17;;
81306;SDS011;70775;50.846;3.224;2023-07-16T13:07:25;4.53;;;2.03;;
81306;SDS011;70775;50.846;3.224;2023-07-16T13:09:51;4.72;;;1.98;;
81306;SDS011;70775;50.846;3.224;2023-07-16T13:12:16;5.93;;;2.33;;
81306;SDS011;70775;50.846;3.224;2023-07-16T13:14:42;5.13;;;1.80;;
81306;SDS011;70775;50.846;3.224;2023-07-16T13:17:07;5.40;;;1.80;;
81306;SDS011;70775;50.846;3.224;2023-07-16T13:19:33;6.22;;;1.98;;
81306;SDS011;70775;50.846;3.224;2023-07-16T13:21:59;3.80;;;1.80;;
81306;SDS011;70775;50.846;3.224;2023-07-16T13:24:24;3.50;;;1.75;;
81306;SDS011;70775;50.846;3.224;2023-07-16T13:26:50;3.67;;;1.95;;
81306;SDS011;70775;50.846;3.224;2023-07-16T13:29:16;3.97;;;1.90;;
81306;SDS011;70775;50.846;3.224;2023-07-16T13:31:41;5.18;;;2.20;;
81306;SDS011;70775;50.846;3.224;2023-07-16T13:34:07;5.93;;;2.13;;
81306;SDS011;70775;50.846;3.224;2023-07-16T13:36:33;8.48;;;1.98;;
81306;SDS011;70775;50.846;3.224;2023-07-16T13:38:58;3.35;;;1.50;;
81306;SDS011;70775;50.846;3.224;2023-07-16T13:41:24;4.13;;;1.80;;
81306;SDS011;70775;50.846;3.224;2023-07-16T13:43:50;5.00;;;1.85;;
81306;SDS011;70775;50.846;3.224;2023-07-16T13:46:16;4.60;;;1.90;;
81306;SDS011;70775;50.846;3.224;2023-07-16T13:48:42;4.82;;;1.92;;
81306;SDS011;70775;50.846;3.224;2023-07-16T13:51:07;5.72;;;2.00;;
81306;SDS011;70775;50.846;3.224;2023-07-16T13:53:33;3.85;;;1.60;;
81306;SDS011;70775;50.846;3.224;2023-07-16T13:55:58;4.68;;;1.90;;
81306;SDS011;70775;50.846;3.224;2023-07-16T13:58:24;8.13;;;2.10;;
81306;SDS011;70775;50.846;3.224;2023-07-16T14:00:50;5.43;;;2.30;;
81306;SDS011;70775;50.846;3.224;2023-07-16T14:03:16;5.05;;;2.13;;
81306;SDS011;70775;50.846;3.224;2023-07-16T14:05:42;4.57;;;1.83;;
81306;SDS011;70775;50.846;3.224;2023-07-16T14:08:07;4.28;;;1.77;;
81306;SDS011;70775;50.846;3.224;2023-07-16T14:10:33;4.88;;;1.92;;
81306;SDS011;70775;50.846;3.224;2023-07-16T14:12:59;4.68;;;2.13;;
81306;SDS011;70775;50.846;3.224;2023-07-16T14:15:24;5.47;;;2.30;;
81306;SDS011;70775;50.846;3.224;2023-07-16T14:17:50;8.00;;;1.70;;
81306;SDS011;70775;50.846;3.224;2023-07-16T14:20:16;5.30;;;1.90;;
81306;SDS011;70775;50.846;3.224;2023-07-16T14:22:41;4.45;;;1.98;;
81306;SDS011;70775;50.846;3.224;2023-07-16T14:25:07;5.55;;;2.30;;
81306;SDS011;70775;50.846;3.224;2023-07-16T14:27:34;3.22;;;1.98;;
81306;SDS011;70775;50.846;3.224;2023-07-16T14:29:59;4.25;;;2.00;;
81306;SDS011;70775;50.846;3.224;2023-07-16T14:32:25;4.55;;;2.13;;
81306;SDS011;70775;50.846;3.224;2023-07-16T14:34:51;5.05;;;2.40;;
81306;SDS011;70775;50.846;3.224;2023-07-16T14:37:17;4.28;;;2.10;;
81306;SDS011;70775;50.846;3.224;2023-07-16T14:39:43;2.88;;;1.70;;
81306;SDS011;70775;50.846;3.224;2023-07-16T14:42:08;3.45;;;1.77;;